createdAt,value
2023-05-08T00:03:19.425Z,102091.80
2023-05-08T00:08:22.215Z,102094.80
2023-05-08T00:13:24.890Z,102099.00
2023-05-08T00:18:27.590Z,102086.40
2023-05-08T00:23:30.174Z,102101.20
2023-05-08T00:28:32.794Z,102097.20
2023-05-08T00:33:35.384Z,102094.80
2023-05-08T00:38:37.998Z,102106.00
2023-05-08T00:43:40.680Z,102108.00
2023-05-08T00:48:45.321Z,102111.40
2023-05-08T00:53:48.371Z,102117.40
2023-05-08T00:58:51.480Z,102123.40
2023-05-08T01:03:54.678Z,102126.40
2023-05-08T01:08:57.956Z,102136.40
2023-05-08T01:14:19.723Z,102136.20
2023-05-08T01:20:06.692Z,102139.40
2023-05-08T01:25:47.066Z,102138.20
2023-05-08T01:31:12.252Z,102138.20
2023-05-08T01:36:27.745Z,102143.80
2023-05-08T01:41:34.533Z,102150.60
2023-05-08T01:46:37.477Z,102156.80
2023-05-08T01:51:53.470Z,102156.60
2023-05-08T01:56:59.424Z,102160.00
2023-05-08T02:02:03.965Z,102153.00
2023-05-08T02:07:08.067Z,102158.40
2023-05-08T02:12:13.801Z,102160.80
2023-05-08T02:17:17.653Z,102165.20
2023-05-08T02:22:23.334Z,102165.60
2023-05-08T02:27:29.813Z,102171.00
2023-05-08T02:32:34.704Z,102169.20
2023-05-08T02:37:39.225Z,102171.80
2023-05-08T02:42:42.046Z,102179.40
2023-05-08T02:48:12.175Z,102179.40
2023-05-08T02:53:27.895Z,102186.20
2023-05-08T02:58:56.806Z,102182.60
2023-05-08T03:04:07.792Z,102181.40
2023-05-08T03:09:25.587Z,102168.80
2023-05-08T03:14:32.226Z,102165.80
2023-05-08T03:19:39.268Z,102162.80
2023-05-08T03:24:44.658Z,102160.00
2023-05-08T03:29:50.901Z,102163.00
2023-05-08T03:34:58.934Z,102150.40
2023-05-08T03:40:01.758Z,102144.40
2023-05-08T03:45:06.227Z,102138.20
2023-05-08T03:50:09.997Z,102127.20
2023-05-08T03:55:12.797Z,102123.80
2023-05-08T04:00:41.658Z,102118.60
2023-05-08T04:06:49.501Z,102113.80
2023-05-08T04:12:04.360Z,102110.80
2023-05-08T04:17:11.600Z,102106.60
2023-05-08T04:22:16.818Z,102100.40
2023-05-08T04:27:20.536Z,102097.80
2023-05-08T04:32:24.322Z,102103.20
2023-05-08T04:37:31.787Z,102101.20
2023-05-08T04:42:36.658Z,102102.20
2023-05-08T04:47:39.700Z,102101.40
2023-05-08T04:52:43.115Z,102097.60
2023-05-08T04:57:45.861Z,102096.00
2023-05-08T05:02:48.675Z,102103.80
2023-05-08T05:07:51.505Z,102102.00
2023-05-08T05:12:54.070Z,102101.40
2023-05-08T05:17:56.874Z,102101.80
2023-05-08T05:22:59.577Z,102100.20
2023-05-08T05:28:02.286Z,102099.00
2023-05-08T05:33:04.989Z,102103.00
2023-05-08T05:38:07.563Z,102107.00
2023-05-08T05:43:10.430Z,102108.20
2023-05-08T05:48:13.105Z,102112.20
2023-05-08T05:53:15.903Z,102112.60
2023-05-08T05:58:19.206Z,102115.80
2023-05-08T06:03:21.918Z,102112.80
2023-05-08T06:08:24.745Z,102126.20
2023-05-08T06:13:27.524Z,102130.20
2023-05-08T06:18:30.290Z,102134.60
2023-05-08T06:23:33.433Z,102136.80
2023-05-08T06:28:35.992Z,102143.40
2023-05-08T06:33:38.871Z,102143.40
2023-05-08T06:38:41.681Z,102143.80
2023-05-08T06:43:44.248Z,102145.60
2023-05-08T06:48:47.131Z,102143.80
2023-05-08T06:53:49.766Z,102142.60
2023-05-08T06:59:04.566Z,102142.60
2023-05-08T07:04:10.390Z,102148.00
2023-05-08T07:09:12.966Z,102149.00
2023-05-08T07:14:15.535Z,102152.40
2023-05-08T07:19:18.812Z,102153.00
2023-05-08T07:24:22.958Z,102162.00
2023-05-08T07:29:27.102Z,102157.00
2023-05-08T07:34:33.089Z,102162.60
2023-05-08T07:39:35.718Z,102159.60
2023-05-08T07:44:50.990Z,102152.00
2023-05-08T07:49:57.311Z,102157.00
2023-05-08T07:54:59.940Z,102158.80
2023-05-08T08:00:03.043Z,102163.20
2023-05-08T08:05:07.084Z,102164.20
2023-05-08T08:10:10.526Z,102167.80
2023-05-08T08:15:13.412Z,102164.60
2023-05-08T08:20:16.365Z,102160.60
2023-05-08T08:25:19.145Z,102165.60
2023-05-08T08:30:21.736Z,102165.80
2023-05-08T08:35:29.411Z,102164.00
2023-05-08T08:40:32.280Z,102161.00
2023-05-08T08:45:37.051Z,102165.80
2023-05-08T08:50:47.391Z,102166.40
2023-05-08T08:55:53.787Z,102170.60
2023-05-08T09:01:00.892Z,102172.40
2023-05-08T09:06:03.913Z,102168.60
2023-05-08T09:11:06.894Z,102173.40
2023-05-08T09:16:09.615Z,102166.60
2023-05-08T09:21:13.000Z,102162.20
2023-05-08T09:26:32.377Z,102161.60
2023-05-08T09:31:39.848Z,102165.40
2023-05-08T09:36:42.809Z,102160.80
2023-05-08T09:42:04.461Z,102153.40
2023-05-08T09:47:16.131Z,102152.60
2023-05-08T09:52:18.751Z,102150.20
2023-05-08T09:57:21.473Z,102157.40
2023-05-08T10:02:24.088Z,102149.40
2023-05-08T10:07:38.935Z,102157.80
2023-05-08T10:12:42.520Z,102148.80
2023-05-08T10:18:01.624Z,102145.00
2023-05-08T10:23:14.421Z,102143.00
2023-05-08T10:28:32.005Z,102153.20
2023-05-08T10:33:40.787Z,102156.60
2023-05-08T10:38:43.791Z,102156.20
2023-05-08T10:43:47.961Z,102153.60
2023-05-08T10:49:27.569Z,102156.40
2023-05-08T10:55:04.692Z,102153.80
2023-05-08T11:00:08.598Z,102152.80
2023-05-08T11:05:19.179Z,102150.40
2023-05-08T11:10:30.963Z,102140.60
2023-05-08T11:15:41.859Z,102140.80
2023-05-08T11:21:04.336Z,102131.80
2023-05-08T11:26:15.011Z,102118.00
2023-05-08T11:31:17.617Z,102126.20
2023-05-08T11:36:22.841Z,102120.20
2023-05-08T11:41:26.018Z,102115.40
2023-05-08T11:46:39.874Z,102109.80
2023-05-08T11:51:45.954Z,102106.40
2023-05-08T11:56:51.658Z,102099.80
2023-05-08T12:02:06.900Z,102095.40
2023-05-08T12:07:11.869Z,102089.00
2023-05-08T12:12:14.570Z,102090.60
2023-05-08T12:17:19.125Z,102087.80
2023-05-08T12:22:21.871Z,102088.80
2023-05-08T12:27:25.260Z,102085.00
2023-05-08T12:32:29.232Z,102077.40
2023-05-08T12:37:32.068Z,102071.60
2023-05-08T12:42:51.548Z,102073.20
2023-05-08T12:48:00.418Z,102066.60
2023-05-08T12:53:22.006Z,102067.40
2023-05-08T12:58:27.950Z,102069.40
2023-05-08T13:03:31.341Z,102062.40
2023-05-08T13:08:37.373Z,102061.00
2023-05-08T13:13:39.998Z,102055.00
2023-05-08T13:18:42.564Z,102052.40
2023-05-08T13:23:46.048Z,102044.00
2023-05-08T13:28:48.590Z,102038.40
2023-05-08T13:33:51.236Z,102040.40
2023-05-08T13:38:57.162Z,102038.80
2023-05-08T13:44:00.006Z,102032.20
2023-05-08T13:49:02.891Z,102022.60
2023-05-08T13:54:05.564Z,102021.20
2023-05-08T13:59:08.364Z,102020.60
2023-05-08T14:04:11.127Z,102017.20
2023-05-08T14:09:14.317Z,102019.20
2023-05-08T14:14:17.026Z,102006.80
2023-05-08T14:19:19.836Z,101999.20
2023-05-08T14:24:22.583Z,102002.80
2023-05-08T14:29:25.514Z,101993.60
2023-05-08T14:34:28.309Z,101998.40
2023-05-08T14:39:31.133Z,101996.80
2023-05-08T14:44:34.058Z,101994.20
2023-05-08T14:49:38.491Z,101999.40
2023-05-08T14:54:41.949Z,101988.60
2023-05-08T14:59:54.180Z,101997.20
2023-05-08T15:04:57.794Z,101991.60
2023-05-08T15:10:00.889Z,101990.20
2023-05-08T15:15:04.636Z,101980.40
2023-05-08T15:20:09.228Z,101981.60
2023-05-08T15:25:12.064Z,101979.60
2023-05-08T15:30:16.467Z,101978.80
2023-05-08T15:35:19.102Z,101969.40
2023-05-08T15:40:21.664Z,101976.60
2023-05-08T15:45:24.286Z,101973.20
2023-05-08T15:50:26.792Z,101971.20
2023-05-08T15:55:29.398Z,101973.00
2023-05-08T16:00:44.059Z,101967.20
2023-05-08T16:05:47.975Z,101962.40
2023-05-08T16:10:50.581Z,101955.60
2023-05-08T16:15:53.542Z,101960.20
2023-05-08T16:20:56.368Z,101955.60
2023-05-08T16:25:58.913Z,101955.80
2023-05-08T16:31:02.077Z,101956.00
2023-05-08T16:36:05.655Z,101956.20
2023-05-08T16:41:10.195Z,101957.20
2023-05-08T16:46:12.984Z,101959.20
2023-05-08T16:51:16.296Z,101961.60
2023-05-08T16:56:18.985Z,101960.60
2023-05-08T17:01:21.729Z,101961.40
2023-05-08T17:06:24.514Z,101959.60
2023-05-08T17:11:27.158Z,101965.40
2023-05-08T17:16:29.776Z,101972.80
2023-05-08T17:21:32.589Z,101974.60
2023-05-08T17:26:35.131Z,101977.40
2023-05-08T17:31:37.782Z,101973.40
2023-05-08T17:36:40.714Z,101971.40
2023-05-08T17:41:43.912Z,101974.80
2023-05-08T17:46:46.677Z,101973.00
2023-05-08T17:51:49.366Z,101977.60
2023-05-08T17:56:51.990Z,101976.60
2023-05-08T18:01:54.649Z,101983.80
2023-05-08T18:06:59.384Z,101986.40
2023-05-08T18:12:02.597Z,101993.60
2023-05-08T18:17:06.022Z,101999.40
2023-05-08T18:22:08.784Z,102005.60
2023-05-08T18:27:11.976Z,102010.20
2023-05-08T18:32:15.018Z,102016.20
2023-05-08T18:37:17.766Z,102023.80
2023-05-08T18:42:20.520Z,102030.40
2023-05-08T18:47:23.435Z,102034.40
2023-05-08T18:52:26.952Z,102040.40
2023-05-08T18:57:29.538Z,102046.80
2023-05-08T19:02:32.448Z,102042.00
2023-05-08T19:07:35.120Z,102045.60
2023-05-08T19:12:37.783Z,102046.80
2023-05-08T19:17:41.701Z,102047.60
2023-05-08T19:22:44.493Z,102047.20
2023-05-08T19:27:47.156Z,102047.40
2023-05-08T19:32:50.057Z,102047.60
2023-05-08T19:37:52.825Z,102046.20
2023-05-08T19:42:55.426Z,102046.40
2023-05-08T19:47:58.094Z,102046.00
2023-05-08T19:53:00.680Z,102049.40
2023-05-08T19:58:03.396Z,102050.40
2023-05-08T20:03:06.253Z,102059.60
2023-05-08T20:08:09.005Z,102054.00
2023-05-08T20:13:11.864Z,102058.80
2023-05-08T20:18:14.735Z,102055.20
2023-05-08T20:23:17.368Z,102055.20
2023-05-08T20:28:23.704Z,102056.20
2023-05-08T20:33:26.480Z,102056.40
2023-05-08T20:38:29.087Z,102061.80
2023-05-08T20:43:31.914Z,102061.60
2023-05-08T20:48:34.478Z,102064.20
2023-05-08T20:53:37.105Z,102056.20
2023-05-08T20:58:39.920Z,102058.60
2023-05-08T21:03:42.684Z,102062.60
2023-05-08T21:08:45.315Z,102065.20
2023-05-08T21:13:48.012Z,102064.40
2023-05-08T21:18:50.565Z,102065.00
2023-05-08T21:23:53.477Z,102071.20
2023-05-08T21:28:58.605Z,102069.80
2023-05-08T21:34:04.884Z,102076.20
2023-05-08T21:39:08.027Z,102073.80
2023-05-08T21:44:12.794Z,102074.40
2023-05-08T21:49:15.387Z,102077.40
2023-05-08T21:54:18.000Z,102077.20
2023-05-08T21:59:21.532Z,102072.20
2023-05-08T22:04:24.125Z,102078.20
2023-05-08T22:09:26.731Z,102078.40
2023-05-08T22:14:29.410Z,102082.20
2023-05-08T22:19:31.958Z,102081.80
2023-05-08T22:24:34.549Z,102076.80
2023-05-08T22:29:37.129Z,102076.80
2023-05-08T22:34:39.736Z,102070.00
2023-05-08T22:39:42.494Z,102081.20
2023-05-08T22:44:45.964Z,102078.80
2023-05-08T22:49:48.708Z,102073.60
2023-05-08T22:54:51.275Z,102083.00
2023-05-08T22:59:53.813Z,102095.00
2023-05-08T23:04:56.509Z,102089.80
2023-05-08T23:09:59.100Z,102087.80
2023-05-08T23:15:01.798Z,102081.00
2023-05-08T23:20:05.851Z,102077.80
2023-05-08T23:25:12.365Z,102081.20
2023-05-08T23:30:17.014Z,102078.40
2023-05-08T23:35:19.844Z,102077.60
2023-05-08T23:40:22.558Z,102077.40
2023-05-08T23:45:25.314Z,102082.60
2023-05-08T23:50:53.527Z,102075.80
2023-05-08T23:55:56.312Z,102077.20
